sensor_id;sensor_type;location;lat;lon;timestamp;P1;durP1;ratioP1;P2;durP2;ratioP2
787;SDS011;16074;42.708;23.312;2023-08-21T00:01:35;10.57;;;9.80;;
787;SDS011;16074;42.708;23.312;2023-08-21T00:04:03;10.60;;;9.70;;
787;SDS011;16074;42.708;23.312;2023-08-21T00:06:32;10.47;;;9.27;;
787;SDS011;16074;42.708;23.312;2023-08-21T00:09:00;11.77;;;10.57;;
787;SDS011;16074;42.708;23.312;2023-08-21T00:11:29;10.60;;;9.80;;
787;SDS011;16074;42.708;23.312;2023-08-21T00:13:57;10.83;;;10.03;;
787;SDS011;16074;42.708;23.312;2023-08-21T00:16:27;9.70;;;9.00;;
787;SDS011;16074;42.708;23.312;2023-08-21T00:18:56;11.07;;;10.17;;
787;SDS011;16074;42.708;23.312;2023-08-21T00:21:25;11.93;;;11.10;;
787;SDS011;16074;42.708;23.312;2023-08-21T00:23:53;11.00;;;10.10;;
787;SDS011;16074;42.708;23.312;2023-08-21T00:26:22;10.90;;;10.10;;
787;SDS011;16074;42.708;23.312;2023-08-21T00:28:51;10.60;;;9.80;;
787;SDS011;16074;42.708;23.312;2023-08-21T00:31:19;11.60;;;10.70;;
787;SDS011;16074;42.708;23.312;2023-08-21T00:33:49;11.30;;;10.40;;
787;SDS011;16074;42.708;23.312;2023-08-21T00:36:17;12.93;;;11.73;;
787;SDS011;16074;42.708;23.312;2023-08-21T00:38:46;11.33;;;10.40;;
787;SDS011;16074;42.708;23.312;2023-08-21T00:41:15;11.23;;;10.23;;
787;SDS011;16074;42.708;23.312;2023-08-21T00:43:43;13.43;;;11.37;;
787;SDS011;16074;42.708;23.312;2023-08-21T00:46:11;11.40;;;10.40;;
787;SDS011;16074;42.708;23.312;2023-08-21T00:48:41;12.53;;;11.30;;
787;SDS011;16074;42.708;23.312;2023-08-21T00:51:11;14.43;;;11.20;;
787;SDS011;16074;42.708;23.312;2023-08-21T00:53:41;11.60;;;10.43;;
787;SDS011;16074;42.708;23.312;2023-08-21T00:56:11;11.87;;;10.80;;
787;SDS011;16074;42.708;23.312;2023-08-21T00:58:41;12.37;;;11.23;;
787;SDS011;16074;42.708;23.312;2023-08-21T01:01:10;10.43;;;9.63;;
787;SDS011;16074;42.708;23.312;2023-08-21T01:03:40;12.17;;;11.27;;
787;SDS011;16074;42.708;23.312;2023-08-21T01:06:08;12.87;;;11.67;;
787;SDS011;16074;42.708;23.312;2023-08-21T01:08:41;11.77;;;10.87;;
787;SDS011;16074;42.708;23.312;2023-08-21T01:11:18;12.00;;;10.90;;
787;SDS011;16074;42.708;23.312;2023-08-21T01:13:54;12.37;;;11.47;;
787;SDS011;16074;42.708;23.312;2023-08-21T01:16:43;11.63;;;10.73;;
787;SDS011;16074;42.708;23.312;2023-08-21T01:19:17;17.77;;;12.17;;
787;SDS011;16074;42.708;23.312;2023-08-21T01:21:53;12.03;;;11.13;;
787;SDS011;16074;42.708;23.312;2023-08-21T01:24:23;12.10;;;10.70;;
787;SDS011;16074;42.708;23.312;2023-08-21T01:26:51;12.23;;;11.20;;
787;SDS011;16074;42.708;23.312;2023-08-21T01:29:20;13.13;;;11.90;;
787;SDS011;16074;42.708;23.312;2023-08-21T01:31:50;13.47;;;12.20;;
787;SDS011;16074;42.708;23.312;2023-08-21T01:34:22;13.57;;;12.33;;
787;SDS011;16074;42.708;23.312;2023-08-21T01:36:51;12.57;;;11.37;;
787;SDS011;16074;42.708;23.312;2023-08-21T01:39:20;13.80;;;11.70;;
787;SDS011;16074;42.708;23.312;2023-08-21T01:41:49;12.77;;;11.70;;
787;SDS011;16074;42.708;23.312;2023-08-21T01:44:18;13.00;;;11.80;;
787;SDS011;16074;42.708;23.312;2023-08-21T01:46:46;11.57;;;10.47;;
787;SDS011;16074;42.708;23.312;2023-08-21T01:49:14;14.40;;;11.47;;
787;SDS011;16074;42.708;23.312;2023-08-21T01:51:45;12.37;;;11.57;;
787;SDS011;16074;42.708;23.312;2023-08-21T01:54:13;12.37;;;11.30;;
787;SDS011;16074;42.708;23.312;2023-08-21T01:56:42;12.07;;;11.07;;
787;SDS011;16074;42.708;23.312;2023-08-21T01:59:11;13.43;;;12.30;;
787;SDS011;16074;42.708;23.312;2023-08-21T02:01:40;12.73;;;11.63;;
787;SDS011;16074;42.708;23.312;2023-08-21T02:04:08;11.20;;;10.20;;
787;SDS011;16074;42.708;23.312;2023-08-21T02:06:37;13.03;;;11.97;;
787;SDS011;16074;42.708;23.312;2023-08-21T02:09:06;12.33;;;11.37;;
787;SDS011;16074;42.708;23.312;2023-08-21T02:11:34;11.80;;;10.90;;
787;SDS011;16074;42.708;23.312;2023-08-21T02:14:02;13.80;;;11.90;;
787;SDS011;16074;42.708;23.312;2023-08-21T02:16:32;12.80;;;11.90;;
787;SDS011;16074;42.708;23.312;2023-08-21T02:19:01;12.97;;;12.00;;
787;SDS011;16074;42.708;23.312;2023-08-21T02:21:29;12.50;;;11.50;;
787;SDS011;16074;42.708;23.312;2023-08-21T02:23:57;12.47;;;11.30;;
787;SDS011;16074;42.708;23.312;2023-08-21T02:26:25;11.77;;;10.87;;
787;SDS011;16074;42.708;23.312;2023-08-21T02:28:55;11.30;;;10.50;;
787;SDS011;16074;42.708;23.312;2023-08-21T02:31:24;12.40;;;11.50;;
787;SDS011;16074;42.708;23.312;2023-08-21T02:33:54;12.63;;;11.53;;
787;SDS011;16074;42.708;23.312;2023-08-21T02:36:22;12.40;;;11.40;;
787;SDS011;16074;42.708;23.312;2023-08-21T02:38:50;13.33;;;12.03;;
787;SDS011;16074;42.708;23.312;2023-08-21T02:41:19;12.53;;;11.40;;
787;SDS011;16074;42.708;23.312;2023-08-21T02:43:47;12.47;;;11.47;;
787;SDS011;16074;42.708;23.312;2023-08-21T02:46:15;11.57;;;10.77;;
787;SDS011;16074;42.708;23.312;2023-08-21T02:48:44;12.40;;;11.40;;
787;SDS011;16074;42.708;23.312;2023-08-21T02:51:14;12.30;;;11.10;;
787;SDS011;16074;42.708;23.312;2023-08-21T02:53:42;12.00;;;11.10;;
787;SDS011;16074;42.708;23.312;2023-08-21T02:56:11;11.77;;;10.97;;
787;SDS011;16074;42.708;23.312;2023-08-21T02:58:39;12.20;;;11.07;;
787;SDS011;16074;42.708;23.312;2023-08-21T03:01:07;11.83;;;10.50;;
787;SDS011;16074;42.708;23.312;2023-08-21T03:03:36;13.33;;;12.13;;
787;SDS011;16074;42.708;23.312;2023-08-21T03:06:04;13.80;;;12.70;;
787;SDS011;16074;42.708;23.312;2023-08-21T03:08:34;12.00;;;11.10;;
787;SDS011;16074;42.708;23.312;2023-08-21T03:11:02;11.80;;;10.90;;
787;SDS011;16074;42.708;23.312;2023-08-21T03:13:32;11.90;;;11.00;;
787;SDS011;16074;42.708;23.312;2023-08-21T03:16:01;13.60;;;12.13;;
787;SDS011;16074;42.708;23.312;2023-08-21T03:18:30;12.53;;;11.53;;
787;SDS011;16074;42.708;23.312;2023-08-21T03:21:00;13.00;;;11.70;;
787;SDS011;16074;42.708;23.312;2023-08-21T03:23:29;12.30;;;11.30;;
787;SDS011;16074;42.708;23.312;2023-08-21T03:25:58;12.20;;;11.13;;
787;SDS011;16074;42.708;23.312;2023-08-21T03:28:27;12.20;;;11.20;;
787;SDS011;16074;42.708;23.312;2023-08-21T03:30:55;13.53;;;12.37;;
787;SDS011;16074;42.708;23.312;2023-08-21T03:33:24;13.10;;;12.10;;
787;SDS011;16074;42.708;23.312;2023-08-21T03:35:53;13.03;;;12.03;;
787;SDS011;16074;42.708;23.312;2023-08-21T03:38:23;13.90;;;12.47;;
787;SDS011;16074;42.708;23.312;2023-08-21T03:40:51;14.73;;;12.20;;
787;SDS011;16074;42.708;23.312;2023-08-21T03:43:21;13.87;;;12.50;;
787;SDS011;16074;42.708;23.312;2023-08-21T03:45:49;14.23;;;13.03;;
787;SDS011;16074;42.708;23.312;2023-08-21T03:48:17;14.40;;;12.97;;
787;SDS011;16074;42.708;23.312;2023-08-21T03:50:45;14.37;;;13.00;;
787;SDS011;16074;42.708;23.312;2023-08-21T03:53:14;13.33;;;12.30;;
787;SDS011;16074;42.708;23.312;2023-08-21T03:55:43;13.67;;;12.57;;
787;SDS011;16074;42.708;23.312;2023-08-21T03:58:12;13.50;;;12.43;;
787;SDS011;16074;42.708;23.312;2023-08-21T04:00:42;14.43;;;13.23;;
787;SDS011;16074;42.708;23.312;2023-08-21T04:03:11;14.50;;;13.30;;
787;SDS011;16074;42.708;23.312;2023-08-21T04:05:39;15.40;;;14.00;;
787;SDS011;16074;42.708;23.312;2023-08-21T04:08:08;12.23;;;11.13;;
787;SDS011;16074;42.708;23.312;2023-08-21T04:10:37;12.67;;;11.73;;
787;SDS011;16074;42.708;23.312;2023-08-21T04:13:05;13.87;;;12.67;;
787;SDS011;16074;42.708;23.312;2023-08-21T04:15:34;13.47;;;12.17;;
787;SDS011;16074;42.708;23.312;2023-08-21T04:18:05;13.60;;;12.20;;
787;SDS011;16074;42.708;23.312;2023-08-21T04:20:35;14.27;;;13.10;;
787;SDS011;16074;42.708;23.312;2023-08-21T04:23:06;14.67;;;13.27;;
787;SDS011;16074;42.708;23.312;2023-08-21T04:25:35;14.07;;;12.63;;
787;SDS011;16074;42.708;23.312;2023-08-21T04:28:03;13.33;;;12.03;;
787;SDS011;16074;42.708;23.312;2023-08-21T04:30:32;12.80;;;11.80;;
787;SDS011;16074;42.708;23.312;2023-08-21T04:33:01;12.40;;;11.40;;
787;SDS011;16074;42.708;23.312;2023-08-21T04:35:35;13.67;;;12.20;;
787;SDS011;16074;42.708;23.312;2023-08-21T04:38:05;11.50;;;10.33;;
787;SDS011;16074;42.708;23.312;2023-08-21T04:40:34;12.40;;;11.47;;
787;SDS011;16074;42.708;23.312;2023-08-21T04:43:02;12.87;;;11.73;;
787;SDS011;16074;42.708;23.312;2023-08-21T04:45:31;12.40;;;11.50;;
787;SDS011;16074;42.708;23.312;2023-08-21T04:47:59;12.57;;;11.33;;
787;SDS011;16074;42.708;23.312;2023-08-21T04:50:28;12.47;;;11.57;;
787;SDS011;16074;42.708;23.312;2023-08-21T04:52:57;14.37;;;13.07;;
787;SDS011;16074;42.708;23.312;2023-08-21T04:55:26;14.70;;;11.93;;
787;SDS011;16074;42.708;23.312;2023-08-21T04:57:55;13.63;;;12.17;;
787;SDS011;16074;42.708;23.312;2023-08-21T05:00:24;13.53;;;12.53;;
787;SDS011;16074;42.708;23.312;2023-08-21T05:02:52;16.00;;;13.87;;
787;SDS011;16074;42.708;23.312;2023-08-21T05:05:21;14.93;;;13.57;;
787;SDS011;16074;42.708;23.312;2023-08-21T05:07:51;14.47;;;13.07;;
787;SDS011;16074;42.708;23.312;2023-08-21T05:10:21;14.57;;;13.07;;
787;SDS011;16074;42.708;23.312;2023-08-21T05:12:49;14.83;;;13.23;;
787;SDS011;16074;42.708;23.312;2023-08-21T05:15:18;16.10;;;13.13;;
787;SDS011;16074;42.708;23.312;2023-08-21T05:17:46;13.33;;;12.23;;
787;SDS011;16074;42.708;23.312;2023-08-21T05:20:15;14.07;;;12.87;;
787;SDS011;16074;42.708;23.312;2023-08-21T05:22:44;13.93;;;12.60;;
787;SDS011;16074;42.708;23.312;2023-08-21T05:25:13;13.27;;;12.13;;
787;SDS011;16074;42.708;23.312;2023-08-21T05:27:43;13.03;;;11.93;;
787;SDS011;16074;42.708;23.312;2023-08-21T05:30:11;13.33;;;12.10;;
787;SDS011;16074;42.708;23.312;2023-08-21T05:32:40;13.83;;;12.53;;
787;SDS011;16074;42.708;23.312;2023-08-21T05:35:09;13.47;;;12.33;;
787;SDS011;16074;42.708;23.312;2023-08-21T05:37:37;13.07;;;11.97;;
787;SDS011;16074;42.708;23.312;2023-08-21T05:40:07;12.30;;;11.30;;
787;SDS011;16074;42.708;23.312;2023-08-21T05:42:36;12.93;;;11.73;;
787;SDS011;16074;42.708;23.312;2023-08-21T05:45:08;13.77;;;12.37;;
787;SDS011;16074;42.708;23.312;2023-08-21T05:47:36;13.23;;;11.80;;
787;SDS011;16074;42.708;23.312;2023-08-21T05:50:05;12.47;;;11.20;;
787;SDS011;16074;42.708;23.312;2023-08-21T05:52:34;13.03;;;11.73;;
787;SDS011;16074;42.708;23.312;2023-08-21T05:55:04;13.00;;;11.97;;
787;SDS011;16074;42.708;23.312;2023-08-21T05:57:33;12.60;;;11.50;;
787;SDS011;16074;42.708;23.312;2023-08-21T06:00:02;12.40;;;11.33;;
787;SDS011;16074;42.708;23.312;2023-08-21T06:02:42;13.00;;;11.77;;
787;SDS011;16074;42.708;23.312;2023-08-21T06:05:20;18.00;;;12.30;;
787;SDS011;16074;42.708;23.312;2023-08-21T06:07:51;13.07;;;12.07;;
787;SDS011;16074;42.708;23.312;2023-08-21T06:10:20;13.70;;;12.50;;
787;SDS011;16074;42.708;23.312;2023-08-21T06:12:48;14.17;;;12.97;;
787;SDS011;16074;42.708;23.312;2023-08-21T06:15:18;13.43;;;12.33;;
787;SDS011;16074;42.708;23.312;2023-08-21T06:17:47;12.50;;;11.50;;
787;SDS011;16074;42.708;23.312;2023-08-21T06:20:16;12.70;;;11.53;;
787;SDS011;16074;42.708;23.312;2023-08-21T06:22:46;16.10;;;12.00;;
787;SDS011;16074;42.708;23.312;2023-08-21T06:25:14;12.73;;;11.40;;
787;SDS011;16074;42.708;23.312;2023-08-21T06:27:43;14.10;;;12.70;;
787;SDS011;16074;42.708;23.312;2023-08-21T06:30:24;12.93;;;11.63;;
787;SDS011;16074;42.708;23.312;2023-08-21T06:32:54;14.67;;;12.87;;
787;SDS011;16074;42.708;23.312;2023-08-21T06:35:24;12.20;;;11.20;;
787;SDS011;16074;42.708;23.312;2023-08-21T06:37:52;11.07;;;10.20;;
787;SDS011;16074;42.708;23.312;2023-08-21T06:40:22;16.87;;;12.60;;
787;SDS011;16074;42.708;23.312;2023-08-21T06:42:50;11.63;;;10.53;;
787;SDS011;16074;42.708;23.312;2023-08-21T06:45:23;13.40;;;11.60;;
787;SDS011;16074;42.708;23.312;2023-08-21T06:47:53;12.20;;;11.20;;
787;SDS011;16074;42.708;23.312;2023-08-21T06:50:22;11.33;;;10.53;;
787;SDS011;16074;42.708;23.312;2023-08-21T06:52:50;13.70;;;11.23;;
787;SDS011;16074;42.708;23.312;2023-08-21T06:55:18;12.73;;;11.40;;
787;SDS011;16074;42.708;23.312;2023-08-21T06:57:46;12.97;;;11.87;;
787;SDS011;16074;42.708;23.312;2023-08-21T07:00:15;12.70;;;11.33;;
787;SDS011;16074;42.708;23.312;2023-08-21T07:02:43;11.53;;;10.53;;
787;SDS011;16074;42.708;23.312;2023-08-21T07:05:13;11.50;;;10.50;;
787;SDS011;16074;42.708;23.312;2023-08-21T07:07:41;11.60;;;10.50;;
787;SDS011;16074;42.708;23.312;2023-08-21T07:10:10;10.80;;;9.90;;
787;SDS011;16074;42.708;23.312;2023-08-21T07:12:38;13.43;;;10.70;;
787;SDS011;16074;42.708;23.312;2023-08-21T07:15:07;17.03;;;11.20;;
787;SDS011;16074;42.708;23.312;2023-08-21T07:17:36;12.30;;;11.17;;
787;SDS011;16074;42.708;23.312;2023-08-21T07:20:05;13.30;;;11.90;;
787;SDS011;16074;42.708;23.312;2023-08-21T07:22:36;12.03;;;10.80;;
787;SDS011;16074;42.708;23.312;2023-08-21T07:25:05;11.23;;;10.00;;
787;SDS011;16074;42.708;23.312;2023-08-21T07:27:33;12.07;;;11.07;;
787;SDS011;16074;42.708;23.312;2023-08-21T07:30:02;11.33;;;10.30;;
787;SDS011;16074;42.708;23.312;2023-08-21T07:32:30;11.23;;;10.23;;
787;SDS011;16074;42.708;23.312;2023-08-21T07:34:58;11.20;;;10.03;;
787;SDS011;16074;42.708;23.312;2023-08-21T07:37:27;11.20;;;10.30;;
787;SDS011;16074;42.708;23.312;2023-08-21T07:39:57;11.23;;;10.10;;
787;SDS011;16074;42.708;23.312;2023-08-21T07:42:25;12.17;;;10.93;;
787;SDS011;16074;42.708;23.312;2023-08-21T07:44:54;13.93;;;10.70;;
787;SDS011;16074;42.708;23.312;2023-08-21T07:47:22;12.63;;;9.77;;
787;SDS011;16074;42.708;23.312;2023-08-21T07:49:50;11.57;;;10.57;;
787;SDS011;16074;42.708;23.312;2023-08-21T07:52:19;12.40;;;11.37;;
787;SDS011;16074;42.708;23.312;2023-08-21T07:54:50;14.03;;;11.40;;
787;SDS011;16074;42.708;23.312;2023-08-21T07:57:20;10.47;;;9.80;;
787;SDS011;16074;42.708;23.312;2023-08-21T07:59:49;10.50;;;9.50;;
787;SDS011;16074;42.708;23.312;2023-08-21T08:02:20;10.27;;;9.27;;
787;SDS011;16074;42.708;23.312;2023-08-21T08:04:48;10.33;;;9.53;;
787;SDS011;16074;42.708;23.312;2023-08-21T08:07:16;10.10;;;9.20;;
787;SDS011;16074;42.708;23.312;2023-08-21T08:09:45;10.30;;;9.60;;
787;SDS011;16074;42.708;23.312;2023-08-21T08:12:13;9.90;;;9.20;;
787;SDS011;16074;42.708;23.312;2023-08-21T08:14:43;11.73;;;10.53;;
787;SDS011;16074;42.708;23.312;2023-08-21T08:17:12;11.13;;;10.33;;
787;SDS011;16074;42.708;23.312;2023-08-21T08:19:40;11.47;;;10.37;;
787;SDS011;16074;42.708;23.312;2023-08-21T08:22:09;11.10;;;10.07;;
787;SDS011;16074;42.708;23.312;2023-08-21T08:24:37;11.07;;;10.13;;
787;SDS011;16074;42.708;23.312;2023-08-21T08:27:05;10.73;;;9.80;;
787;SDS011;16074;42.708;23.312;2023-08-21T08:29:34;11.50;;;10.60;;
787;SDS011;16074;42.708;23.312;2023-08-21T08:32:05;10.80;;;10.10;;
787;SDS011;16074;42.708;23.312;2023-08-21T08:34:33;10.50;;;9.70;;
787;SDS011;16074;42.708;23.312;2023-08-21T08:37:02;9.90;;;9.20;;
787;SDS011;16074;42.708;23.312;2023-08-21T08:39:30;10.70;;;10.00;;
787;SDS011;16074;42.708;23.312;2023-08-21T08:41:58;11.33;;;10.30;;
787;SDS011;16074;42.708;23.312;2023-08-21T08:44:31;11.50;;;10.37;;
787;SDS011;16074;42.708;23.312;2023-08-21T08:47:04;10.23;;;9.53;;
787;SDS011;16074;42.708;23.312;2023-08-21T08:49:32;10.30;;;9.50;;
787;SDS011;16074;42.708;23.312;2023-08-21T08:52:01;9.23;;;8.60;;
787;SDS011;16074;42.708;23.312;2023-08-21T08:54:29;10.77;;;9.80;;
787;SDS011;16074;42.708;23.312;2023-08-21T08:56:59;11.90;;;9.77;;
787;SDS011;16074;42.708;23.312;2023-08-21T08:59:29;10.87;;;10.07;;
787;SDS011;16074;42.708;23.312;2023-08-21T09:01:57;12.03;;;11.03;;
787;SDS011;16074;42.708;23.312;2023-08-21T09:04:27;9.90;;;9.10;;
787;SDS011;16074;42.708;23.312;2023-08-21T09:07:05;9.93;;;9.00;;
787;SDS011;16074;42.708;23.312;2023-08-21T09:09:37;11.17;;;10.37;;
787;SDS011;16074;42.708;23.312;2023-08-21T09:12:10;9.90;;;9.00;;
787;SDS011;16074;42.708;23.312;2023-08-21T09:14:39;10.80;;;10.00;;
787;SDS011;16074;42.708;23.312;2023-08-21T09:17:08;10.30;;;9.40;;
787;SDS011;16074;42.708;23.312;2023-08-21T09:19:38;10.33;;;9.53;;
787;SDS011;16074;42.708;23.312;2023-08-21T09:22:10;11.13;;;10.00;;
787;SDS011;16074;42.708;23.312;2023-08-21T09:24:39;9.90;;;9.10;;
787;SDS011;16074;42.708;23.312;2023-08-21T09:27:15;10.33;;;9.63;;
787;SDS011;16074;42.708;23.312;2023-08-21T09:29:44;9.23;;;8.63;;
787;SDS011;16074;42.708;23.312;2023-08-21T09:32:14;8.93;;;8.40;;
787;SDS011;16074;42.708;23.312;2023-08-21T09:34:44;9.00;;;8.40;;
787;SDS011;16074;42.708;23.312;2023-08-21T09:37:12;9.27;;;8.57;;
787;SDS011;16074;42.708;23.312;2023-08-21T09:39:41;9.73;;;8.97;;
787;SDS011;16074;42.708;23.312;2023-08-21T09:42:09;8.83;;;8.23;;
787;SDS011;16074;42.708;23.312;2023-08-21T09:44:38;10.90;;;10.00;;
787;SDS011;16074;42.708;23.312;2023-08-21T09:47:08;9.10;;;8.30;;
787;SDS011;16074;42.708;23.312;2023-08-21T09:49:38;8.40;;;7.90;;
787;SDS011;16074;42.708;23.312;2023-08-21T09:55:38;9.97;;;9.17;;
787;SDS011;16074;42.708;23.312;2023-08-21T09:58:07;9.73;;;8.50;;
787;SDS011;16074;42.708;23.312;2023-08-21T10:00:37;9.10;;;8.40;;
787;SDS011;16074;42.708;23.312;2023-08-21T10:03:06;9.30;;;8.70;;
787;SDS011;16074;42.708;23.312;2023-08-21T10:05:37;22.03;;;9.77;;
787;SDS011;16074;42.708;23.312;2023-08-21T10:08:07;10.00;;;9.10;;
787;SDS011;16074;42.708;23.312;2023-08-21T10:10:37;8.73;;;8.00;;
787;SDS011;16074;42.708;23.312;2023-08-21T10:13:07;8.60;;;8.17;;
787;SDS011;16074;42.708;23.312;2023-08-21T10:15:37;8.80;;;8.30;;
787;SDS011;16074;42.708;23.312;2023-08-21T10:18:18;10.10;;;9.50;;
787;SDS011;16074;42.708;23.312;2023-08-21T10:20:48;10.33;;;9.53;;
787;SDS011;16074;42.708;23.312;2023-08-21T10:23:26;9.40;;;8.80;;
787;SDS011;16074;42.708;23.312;2023-08-21T10:25:57;8.63;;;7.93;;
787;SDS011;16074;42.708;23.312;2023-08-21T10:34:03;9.03;;;8.37;;
787;SDS011;16074;42.708;23.312;2023-08-21T10:39:37;9.00;;;8.47;;
787;SDS011;16074;42.708;23.312;2023-08-21T10:42:09;8.73;;;8.13;;
787;SDS011;16074;42.708;23.312;2023-08-21T10:44:48;10.20;;;8.27;;
787;SDS011;16074;42.708;23.312;2023-08-21T10:47:19;9.13;;;8.53;;
787;SDS011;16074;42.708;23.312;2023-08-21T10:49:51;9.53;;;8.70;;
787;SDS011;16074;42.708;23.312;2023-08-21T10:52:21;9.03;;;8.40;;
787;SDS011;16074;42.708;23.312;2023-08-21T10:54:51;8.57;;;7.97;;
787;SDS011;16074;42.708;23.312;2023-08-21T10:57:23;8.17;;;7.37;;
787;SDS011;16074;42.708;23.312;2023-08-21T10:59:52;10.50;;;7.77;;
787;SDS011;16074;42.708;23.312;2023-08-21T11:02:22;8.23;;;7.73;;
787;SDS011;16074;42.708;23.312;2023-08-21T11:04:51;8.80;;;8.20;;
787;SDS011;16074;42.708;23.312;2023-08-21T11:07:20;7.47;;;7.07;;
787;SDS011;16074;42.708;23.312;2023-08-21T11:09:48;8.53;;;7.93;;
787;SDS011;16074;42.708;23.312;2023-08-21T11:12:17;8.17;;;7.57;;
787;SDS011;16074;42.708;23.312;2023-08-21T11:14:48;7.93;;;7.53;;
787;SDS011;16074;42.708;23.312;2023-08-21T11:17:17;7.40;;;6.90;;
787;SDS011;16074;42.708;23.312;2023-08-21T11:19:46;8.00;;;7.57;;
787;SDS011;16074;42.708;23.312;2023-08-21T11:22:15;9.47;;;8.60;;
787;SDS011;16074;42.708;23.312;2023-08-21T11:24:44;7.53;;;7.13;;
787;SDS011;16074;42.708;23.312;2023-08-21T11:27:14;8.70;;;8.20;;
787;SDS011;16074;42.708;23.312;2023-08-21T11:29:44;8.70;;;8.20;;
787;SDS011;16074;42.708;23.312;2023-08-21T11:32:16;9.47;;;8.27;;
787;SDS011;16074;42.708;23.312;2023-08-21T11:34:47;7.67;;;7.17;;
787;SDS011;16074;42.708;23.312;2023-08-21T11:37:17;7.50;;;7.10;;
787;SDS011;16074;42.708;23.312;2023-08-21T11:39:47;8.13;;;7.53;;
787;SDS011;16074;42.708;23.312;2023-08-21T11:42:16;8.27;;;7.73;;
787;SDS011;16074;42.708;23.312;2023-08-21T11:44:45;7.80;;;7.37;;
787;SDS011;16074;42.708;23.312;2023-08-21T11:47:16;7.67;;;7.27;;
787;SDS011;16074;42.708;23.312;2023-08-21T11:49:46;8.43;;;7.93;;
787;SDS011;16074;42.708;23.312;2023-08-21T11:52:17;7.93;;;7.40;;
787;SDS011;16074;42.708;23.312;2023-08-21T11:54:48;7.77;;;7.20;;
787;SDS011;16074;42.708;23.312;2023-08-21T11:57:17;8.30;;;7.90;;
787;SDS011;16074;42.708;23.312;2023-08-21T11:59:50;8.63;;;8.03;;
787;SDS011;16074;42.708;23.312;2023-08-21T12:02:21;8.37;;;7.93;;
787;SDS011;16074;42.708;23.312;2023-08-21T12:04:54;8.77;;;8.20;;
787;SDS011;16074;42.708;23.312;2023-08-21T12:07:22;10.00;;;8.00;;
787;SDS011;16074;42.708;23.312;2023-08-21T12:09:51;8.33;;;7.73;;
787;SDS011;16074;42.708;23.312;2023-08-21T12:12:20;8.80;;;8.20;;
787;SDS011;16074;42.708;23.312;2023-08-21T12:14:48;8.30;;;7.60;;
787;SDS011;16074;42.708;23.312;2023-08-21T12:17:16;8.50;;;7.80;;
787;SDS011;16074;42.708;23.312;2023-08-21T12:19:46;7.60;;;7.20;;
787;SDS011;16074;42.708;23.312;2023-08-21T12:22:14;7.90;;;7.23;;
787;SDS011;16074;42.708;23.312;2023-08-21T12:24:42;8.17;;;7.57;;
787;SDS011;16074;42.708;23.312;2023-08-21T12:27:11;8.20;;;7.70;;
787;SDS011;16074;42.708;23.312;2023-08-21T12:29:39;7.73;;;7.20;;
787;SDS011;16074;42.708;23.312;2023-08-21T12:32:07;9.20;;;8.50;;
787;SDS011;16074;42.708;23.312;2023-08-21T12:34:36;8.67;;;8.17;;
787;SDS011;16074;42.708;23.312;2023-08-21T12:37:05;7.57;;;7.07;;
787;SDS011;16074;42.708;23.312;2023-08-21T12:39:34;8.70;;;8.10;;
787;SDS011;16074;42.708;23.312;2023-08-21T12:42:02;9.00;;;8.00;;
787;SDS011;16074;42.708;23.312;2023-08-21T12:44:31;7.73;;;7.23;;
787;SDS011;16074;42.708;23.312;2023-08-21T12:46:59;7.93;;;7.43;;
787;SDS011;16074;42.708;23.312;2023-08-21T12:49:27;9.43;;;8.97;;
787;SDS011;16074;42.708;23.312;2023-08-21T12:51:54;7.63;;;7.33;;
787;SDS011;16074;42.708;23.312;2023-08-21T12:54:24;8.57;;;7.97;;
787;SDS011;16074;42.708;23.312;2023-08-21T12:56:52;6.97;;;6.50;;
787;SDS011;16074;42.708;23.312;2023-08-21T12:59:23;8.70;;;7.80;;
787;SDS011;16074;42.708;23.312;2023-08-21T13:01:51;7.80;;;7.40;;
787;SDS011;16074;42.708;23.312;2023-08-21T13:04:19;7.20;;;6.80;;
787;SDS011;16074;42.708;23.312;2023-08-21T13:06:48;8.70;;;8.10;;
787;SDS011;16074;42.708;23.312;2023-08-21T13:09:16;8.80;;;8.20;;
787;SDS011;16074;42.708;23.312;2023-08-21T13:11:46;7.50;;;7.17;;
787;SDS011;16074;42.708;23.312;2023-08-21T13:14:14;7.77;;;7.33;;
787;SDS011;16074;42.708;23.312;2023-08-21T13:16:42;8.90;;;8.30;;
787;SDS011;16074;42.708;23.312;2023-08-21T13:19:11;8.60;;;7.80;;
787;SDS011;16074;42.708;23.312;2023-08-21T13:21:39;8.53;;;7.53;;
787;SDS011;16074;42.708;23.312;2023-08-21T13:24:08;9.90;;;7.73;;
787;SDS011;16074;42.708;23.312;2023-08-21T13:26:36;7.93;;;7.33;;
787;SDS011;16074;42.708;23.312;2023-08-21T13:29:06;7.83;;;7.27;;
787;SDS011;16074;42.708;23.312;2023-08-21T13:31:35;7.43;;;6.93;;
787;SDS011;16074;42.708;23.312;2023-08-21T13:34:03;7.63;;;7.13;;
787;SDS011;16074;42.708;23.312;2023-08-21T13:36:31;8.67;;;8.00;;
787;SDS011;16074;42.708;23.312;2023-08-21T13:39:00;8.20;;;7.67;;
787;SDS011;16074;42.708;23.312;2023-08-21T13:41:30;8.27;;;7.70;;
787;SDS011;16074;42.708;23.312;2023-08-21T13:43:58;8.40;;;7.80;;
787;SDS011;16074;42.708;23.312;2023-08-21T13:46:28;8.10;;;7.47;;
787;SDS011;16074;42.708;23.312;2023-08-21T13:48:56;7.67;;;7.27;;
787;SDS011;16074;42.708;23.312;2023-08-21T13:51:24;9.23;;;8.03;;
787;SDS011;16074;42.708;23.312;2023-08-21T13:53:53;8.30;;;7.80;;
787;SDS011;16074;42.708;23.312;2023-08-21T13:56:21;7.70;;;7.17;;
787;SDS011;16074;42.708;23.312;2023-08-21T13:58:49;8.67;;;7.97;;
787;SDS011;16074;42.708;23.312;2023-08-21T14:01:17;8.50;;;8.00;;
787;SDS011;16074;42.708;23.312;2023-08-21T14:03:47;8.43;;;7.70;;
787;SDS011;16074;42.708;23.312;2023-08-21T14:06:15;8.73;;;8.10;;
787;SDS011;16074;42.708;23.312;2023-08-21T14:08:44;8.50;;;7.90;;
787;SDS011;16074;42.708;23.312;2023-08-21T14:11:13;9.50;;;9.00;;
787;SDS011;16074;42.708;23.312;2023-08-21T14:13:41;8.80;;;8.00;;
787;SDS011;16074;42.708;23.312;2023-08-21T14:16:10;8.53;;;7.83;;
787;SDS011;16074;42.708;23.312;2023-08-21T14:18:38;8.00;;;7.40;;
787;SDS011;16074;42.708;23.312;2023-08-21T14:21:08;8.17;;;7.53;;
787;SDS011;16074;42.708;23.312;2023-08-21T14:23:36;8.83;;;8.03;;
787;SDS011;16074;42.708;23.312;2023-08-21T14:26:05;9.60;;;8.97;;
787;SDS011;16074;42.708;23.312;2023-08-21T14:28:34;8.70;;;8.20;;
787;SDS011;16074;42.708;23.312;2023-08-21T14:31:02;8.50;;;7.70;;
787;SDS011;16074;42.708;23.312;2023-08-21T14:33:31;9.53;;;8.80;;
787;SDS011;16074;42.708;23.312;2023-08-21T14:35:59;9.80;;;9.03;;
787;SDS011;16074;42.708;23.312;2023-08-21T14:38:29;8.10;;;7.70;;
787;SDS011;16074;42.708;23.312;2023-08-21T14:40:57;9.40;;;8.73;;
787;SDS011;16074;42.708;23.312;2023-08-21T14:43:26;8.43;;;7.60;;
787;SDS011;16074;42.708;23.312;2023-08-21T14:45:54;8.97;;;8.03;;
787;SDS011;16074;42.708;23.312;2023-08-21T14:48:23;8.10;;;7.60;;
787;SDS011;16074;42.708;23.312;2023-08-21T14:50:51;8.83;;;8.03;;
787;SDS011;16074;42.708;23.312;2023-08-21T14:53:20;10.43;;;9.50;;
787;SDS011;16074;42.708;23.312;2023-08-21T14:55:52;10.13;;;9.53;;
787;SDS011;16074;42.708;23.312;2023-08-21T14:58:21;9.00;;;8.33;;
787;SDS011;16074;42.708;23.312;2023-08-21T15:00:53;8.77;;;8.10;;
787;SDS011;16074;42.708;23.312;2023-08-21T15:03:22;8.80;;;8.23;;
787;SDS011;16074;42.708;23.312;2023-08-21T15:05:50;9.13;;;8.27;;
787;SDS011;16074;42.708;23.312;2023-08-21T15:08:19;8.77;;;8.17;;
787;SDS011;16074;42.708;23.312;2023-08-21T15:10:47;9.37;;;8.40;;